sensor_id;sensor_type;location;lat;lon;timestamp;pressure;altitude;pressure_sealevel;temperature;humidity
55755;BME280;41674;52.290;-1.474;2023-05-12T00:01:58;101467.93;;;12.64;65.21
55755;BME280;41674;52.290;-1.474;2023-05-12T00:04:28;101469.19;;;13.05;65.36
55755;BME280;41674;52.290;-1.474;2023-05-12T00:06:58;101469.71;;;12.24;66.75
55755;BME280;41674;52.290;-1.474;2023-05-12T00:09:27;101474.96;;;12.96;66.59
55755;BME280;41674;52.290;-1.474;2023-05-12T00:11:58;101476.03;;;12.72;66.79
55755;BME280;41674;52.290;-1.474;2023-05-12T00:14:27;101475.40;;;12.61;69.09
55755;BME280;41674;52.290;-1.474;2023-05-12T00:16:56;101483.40;;;12.93;69.24
55755;BME280;41674;52.290;-1.474;2023-05-12T00:19:26;101488.31;;;12.16;71.53
55755;BME280;41674;52.290;-1.474;2023-05-12T00:21:55;101490.83;;;12.49;70.12
55755;BME280;41674;52.290;-1.474;2023-05-12T00:24:24;101492.65;;;12.81;70.28
55755;BME280;41674;52.290;-1.474;2023-05-12T00:26:54;101495.02;;;12.70;70.74
55755;BME280;41674;52.290;-1.474;2023-05-12T00:29:23;101496.21;;;12.18;72.75
55755;BME280;41674;52.290;-1.474;2023-05-12T00:31:54;101498.78;;;12.57;70.85
55755;BME280;41674;52.290;-1.474;2023-05-12T00:34:23;101499.26;;;12.67;71.49
55755;BME280;41674;52.290;-1.474;2023-05-12T00:36:52;101496.25;;;12.13;74.38
55755;BME280;41674;52.290;-1.474;2023-05-12T00:39:22;101498.38;;;12.42;74.86
55755;BME280;41674;52.290;-1.474;2023-05-12T00:41:54;101506.37;;;10.56;81.78
55755;BME280;41674;52.290;-1.474;2023-05-12T00:44:21;101501.67;;;12.34;77.04
55755;BME280;41674;52.290;-1.474;2023-05-12T00:46:51;101506.92;;;12.12;78.91
55755;BME280;41674;52.290;-1.474;2023-05-12T00:49:20;101513.57;;;9.63;92.05
55755;BME280;41674;52.290;-1.474;2023-05-12T00:51:49;101523.68;;;10.49;90.56
55755;BME280;41674;52.290;-1.474;2023-05-12T00:54:19;101526.10;;;10.84;90.69
55755;BME280;41674;52.290;-1.474;2023-05-12T00:56:48;101531.23;;;11.52;86.69
55755;BME280;41674;52.290;-1.474;2023-05-12T00:59:17;101529.56;;;11.16;87.72
55755;BME280;41674;52.290;-1.474;2023-05-12T01:01:48;101518.47;;;12.29;83.66
55755;BME280;41674;52.290;-1.474;2023-05-12T01:04:17;101524.18;;;12.28;82.37
55755;BME280;41674;52.290;-1.474;2023-05-12T01:06:51;101525.30;;;12.07;82.31
55755;BME280;41674;52.290;-1.474;2023-05-12T01:09:15;101529.59;;;12.30;82.65
55755;BME280;41674;52.290;-1.474;2023-05-12T01:11:45;101536.25;;;10.56;88.60
55755;BME280;41674;52.290;-1.474;2023-05-12T01:14:14;101538.41;;;11.88;85.21
55755;BME280;41674;52.290;-1.474;2023-05-12T01:16:47;101533.07;;;12.80;82.33
55755;BME280;41674;52.290;-1.474;2023-05-12T01:19:28;101537.56;;;12.27;84.21
55755;BME280;41674;52.290;-1.474;2023-05-12T01:21:42;101541.70;;;12.01;84.36
55755;BME280;41674;52.290;-1.474;2023-05-12T01:24:14;101538.38;;;12.21;82.61
55755;BME280;41674;52.290;-1.474;2023-05-12T01:26:41;101543.09;;;11.88;85.26
55755;BME280;41674;52.290;-1.474;2023-05-12T01:29:11;101537.17;;;12.35;83.50
55755;BME280;41674;52.290;-1.474;2023-05-12T01:31:40;101550.79;;;11.40;87.89
55755;BME280;41674;52.290;-1.474;2023-05-12T01:34:14;101552.00;;;11.49;87.64
55755;BME280;41674;52.290;-1.474;2023-05-12T01:36:39;101544.14;;;12.38;83.94
55755;BME280;41674;52.290;-1.474;2023-05-12T01:39:08;101547.82;;;12.50;84.70
55755;BME280;41674;52.290;-1.474;2023-05-12T01:41:39;101555.78;;;12.22;85.18
55755;BME280;41674;52.290;-1.474;2023-05-12T01:44:08;101558.43;;;9.95;93.67
55755;BME280;41674;52.290;-1.474;2023-05-12T01:46:37;101559.28;;;10.79;93.75
55755;BME280;41674;52.290;-1.474;2023-05-12T01:49:07;101562.91;;;11.05;91.38
55755;BME280;41674;52.290;-1.474;2023-05-12T01:51:36;101564.93;;;11.32;91.58
55755;BME280;41674;52.290;-1.474;2023-05-12T01:54:05;101560.59;;;12.00;87.91
55755;BME280;41674;52.290;-1.474;2023-05-12T01:56:34;101564.76;;;12.03;87.60
55755;BME280;41674;52.290;-1.474;2023-05-12T01:59:04;101569.91;;;11.32;90.50
55755;BME280;41674;52.290;-1.474;2023-05-12T02:01:33;101567.35;;;11.91;87.69
55755;BME280;41674;52.290;-1.474;2023-05-12T02:04:03;101565.14;;;12.25;85.29
55755;BME280;41674;52.290;-1.474;2023-05-12T02:06:32;101573.27;;;12.54;86.36
55755;BME280;41674;52.290;-1.474;2023-05-12T02:09:02;101575.21;;;12.13;85.95
55755;BME280;41674;52.290;-1.474;2023-05-12T02:11:32;101582.82;;;11.81;86.47
55755;BME280;41674;52.290;-1.474;2023-05-12T02:14:01;101588.99;;;11.71;88.35
55755;BME280;41674;52.290;-1.474;2023-05-12T02:16:31;101589.09;;;10.27;92.67
55755;BME280;41674;52.290;-1.474;2023-05-12T02:19:01;101591.23;;;10.74;93.23
55755;BME280;41674;52.290;-1.474;2023-05-12T02:21:29;101595.57;;;9.89;96.12
55755;BME280;41674;52.290;-1.474;2023-05-12T02:24:00;101592.74;;;10.69;93.87
55755;BME280;41674;52.290;-1.474;2023-05-12T02:26:29;101598.34;;;10.79;92.45
55755;BME280;41674;52.290;-1.474;2023-05-12T02:28:59;101606.31;;;9.44;100.00
55755;BME280;41674;52.290;-1.474;2023-05-12T02:31:28;101606.91;;;10.43;94.82
55755;BME280;41674;52.290;-1.474;2023-05-12T02:33:58;101609.94;;;10.02;96.72
55755;BME280;41674;52.290;-1.474;2023-05-12T02:36:27;101611.32;;;10.05;95.05
55755;BME280;41674;52.290;-1.474;2023-05-12T02:38:56;101610.47;;;10.83;91.09
55755;BME280;41674;52.290;-1.474;2023-05-12T02:41:27;101611.01;;;11.53;89.74
55755;BME280;41674;52.290;-1.474;2023-05-12T02:43:55;101614.84;;;11.01;90.73
55755;BME280;41674;52.290;-1.474;2023-05-12T02:46:25;101615.53;;;11.29;88.84
55755;BME280;41674;52.290;-1.474;2023-05-12T02:48:54;101620.03;;;10.50;91.93
55755;BME280;41674;52.290;-1.474;2023-05-12T02:51:24;101627.26;;;10.18;92.43
55755;BME280;41674;52.290;-1.474;2023-05-12T02:53:53;101630.15;;;9.17;99.76
55755;BME280;41674;52.290;-1.474;2023-05-12T02:56:23;101627.39;;;10.59;95.07
55755;BME280;41674;52.290;-1.474;2023-05-12T02:58:53;101625.72;;;10.29;93.80
55755;BME280;41674;52.290;-1.474;2023-05-12T03:01:23;101627.19;;;10.02;94.91
55755;BME280;41674;52.290;-1.474;2023-05-12T03:03:52;101626.81;;;10.23;91.67
55755;BME280;41674;52.290;-1.474;2023-05-12T03:06:22;101630.77;;;9.85;94.35
55755;BME280;41674;52.290;-1.474;2023-05-12T03:08:51;101627.25;;;10.71;90.83
55755;BME280;41674;52.290;-1.474;2023-05-12T03:11:21;101637.01;;;8.27;100.00
55755;BME280;41674;52.290;-1.474;2023-05-12T03:13:50;101642.98;;;7.96;100.00
55755;BME280;41674;52.290;-1.474;2023-05-12T03:16:19;101643.69;;;8.08;100.00
55755;BME280;41674;52.290;-1.474;2023-05-12T03:18:49;101639.99;;;9.22;100.00
55755;BME280;41674;52.290;-1.474;2023-05-12T03:21:18;101640.29;;;9.46;97.32
55755;BME280;41674;52.290;-1.474;2023-05-12T03:23:47;101644.40;;;9.18;99.23
55755;BME280;41674;52.290;-1.474;2023-05-12T03:26:16;101646.29;;;10.36;93.82
55755;BME280;41674;52.290;-1.474;2023-05-12T03:28:45;101647.71;;;10.46;91.67
55755;BME280;41674;52.290;-1.474;2023-05-12T03:31:15;101651.07;;;9.99;93.52
55755;BME280;41674;52.290;-1.474;2023-05-12T03:33:44;101655.84;;;8.18;100.00
55755;BME280;41674;52.290;-1.474;2023-05-12T03:36:14;101649.13;;;9.05;100.00
55755;BME280;41674;52.290;-1.474;2023-05-12T03:38:43;101650.53;;;8.62;100.00
55755;BME280;41674;52.290;-1.474;2023-05-12T03:41:16;101650.20;;;9.07;100.00
55755;BME280;41674;52.290;-1.474;2023-05-12T03:43:42;101648.46;;;9.76;97.42
55755;BME280;41674;52.290;-1.474;2023-05-12T03:46:12;101652.83;;;8.68;100.00
55755;BME280;41674;52.290;-1.474;2023-05-12T03:48:42;101654.40;;;9.52;96.98
55755;BME280;41674;52.290;-1.474;2023-05-12T03:51:11;101663.34;;;8.24;100.00
55755;BME280;41674;52.290;-1.474;2023-05-12T03:53:40;101661.89;;;8.37;100.00
55755;BME280;41674;52.290;-1.474;2023-05-12T03:56:10;101663.68;;;8.51;100.00
55755;BME280;41674;52.290;-1.474;2023-05-12T03:58:39;101659.04;;;9.70;97.87
55755;BME280;41674;52.290;-1.474;2023-05-12T04:01:08;101662.26;;;9.77;96.83
55755;BME280;41674;52.290;-1.474;2023-05-12T04:03:38;101672.43;;;8.07;100.00
55755;BME280;41674;52.290;-1.474;2023-05-12T04:06:08;101669.03;;;8.40;100.00
55755;BME280;41674;52.290;-1.474;2023-05-12T04:08:37;101669.24;;;9.77;96.33
55755;BME280;41674;52.290;-1.474;2023-05-12T04:11:07;101668.52;;;9.65;94.91
55755;BME280;41674;52.290;-1.474;2023-05-12T04:13:36;101669.72;;;10.04;96.47
55755;BME280;41674;52.290;-1.474;2023-05-12T04:16:05;101671.83;;;9.26;97.61
55755;BME280;41674;52.290;-1.474;2023-05-12T04:18:34;101680.81;;;8.48;100.00
55755;BME280;41674;52.290;-1.474;2023-05-12T04:21:04;101685.07;;;8.02;100.00
55755;BME280;41674;52.290;-1.474;2023-05-12T04:23:33;101675.10;;;9.05;100.00
55755;BME280;41674;52.290;-1.474;2023-05-12T04:26:03;101676.08;;;9.01;99.89
55755;BME280;41674;52.290;-1.474;2023-05-12T04:28:32;101680.11;;;9.52;98.50
55755;BME280;41674;52.290;-1.474;2023-05-12T04:31:02;101682.32;;;10.43;93.86
55755;BME280;41674;52.290;-1.474;2023-05-12T04:33:31;101684.10;;;10.18;93.41
55755;BME280;41674;52.290;-1.474;2023-05-12T04:36:01;101685.83;;;10.33;92.31
55755;BME280;41674;52.290;-1.474;2023-05-12T04:38:30;101685.93;;;9.70;93.89
55755;BME280;41674;52.290;-1.474;2023-05-12T04:41:01;101692.10;;;10.36;92.19
55755;BME280;41674;52.290;-1.474;2023-05-12T04:43:30;101692.24;;;9.62;93.65
55755;BME280;41674;52.290;-1.474;2023-05-12T04:45:59;101698.54;;;10.05;92.08
55755;BME280;41674;52.290;-1.474;2023-05-12T04:48:28;101696.59;;;9.61;94.23
55755;BME280;41674;52.290;-1.474;2023-05-12T04:50:58;101700.13;;;10.08;92.74
55755;BME280;41674;52.290;-1.474;2023-05-12T04:53:27;101701.49;;;9.53;94.23
55755;BME280;41674;52.290;-1.474;2023-05-12T04:55:58;101710.91;;;8.49;98.21
55755;BME280;41674;52.290;-1.474;2023-05-12T04:58:26;101704.36;;;9.36;93.87
55755;BME280;41674;52.290;-1.474;2023-05-12T05:00:56;101707.42;;;9.51;94.52
55755;BME280;41674;52.290;-1.474;2023-05-12T05:03:25;101709.01;;;10.24;91.47
55755;BME280;41674;52.290;-1.474;2023-05-12T05:05:54;101711.09;;;10.04;89.89
55755;BME280;41674;52.290;-1.474;2023-05-12T05:08:23;101714.00;;;8.87;97.60
55755;BME280;41674;52.290;-1.474;2023-05-12T05:10:53;101718.80;;;10.19;91.54
55755;BME280;41674;52.290;-1.474;2023-05-12T05:13:22;101719.21;;;9.49;93.04
55755;BME280;41674;52.290;-1.474;2023-05-12T05:15:53;101727.39;;;10.47;91.33
55755;BME280;41674;52.290;-1.474;2023-05-12T05:18:21;101731.70;;;8.31;100.00
55755;BME280;41674;52.290;-1.474;2023-05-12T05:21:02;101728.14;;;8.83;96.14
55755;BME280;41674;52.290;-1.474;2023-05-12T05:23:24;101724.64;;;10.38;87.89
55755;BME280;41674;52.290;-1.474;2023-05-12T05:25:56;101723.72;;;10.26;86.98
55755;BME280;41674;52.290;-1.474;2023-05-12T05:28:19;101732.28;;;10.51;89.21
55755;BME280;41674;52.290;-1.474;2023-05-12T05:30:49;101731.05;;;9.75;91.94
55755;BME280;41674;52.290;-1.474;2023-05-12T05:33:18;101745.32;;;7.55;100.00
55755;BME280;41674;52.290;-1.474;2023-05-12T05:35:48;101744.17;;;9.95;95.43
55755;BME280;41674;52.290;-1.474;2023-05-12T05:38:18;101744.01;;;9.54;96.30
55755;BME280;41674;52.290;-1.474;2023-05-12T05:40:47;101750.27;;;10.41;92.21
55755;BME280;41674;52.290;-1.474;2023-05-12T05:43:16;101753.60;;;9.57;94.38
55755;BME280;41674;52.290;-1.474;2023-05-12T05:45:46;101756.24;;;9.43;94.59
55755;BME280;41674;52.290;-1.474;2023-05-12T05:48:15;101756.74;;;9.09;95.13
55755;BME280;41674;52.290;-1.474;2023-05-12T05:50:45;101759.52;;;9.20;95.79
55755;BME280;41674;52.290;-1.474;2023-05-12T05:53:14;101761.43;;;9.18;95.18
55755;BME280;41674;52.290;-1.474;2023-05-12T05:55:43;101770.40;;;8.84;98.35
55755;BME280;41674;52.290;-1.474;2023-05-12T05:58:13;101768.33;;;9.29;95.35
55755;BME280;41674;52.290;-1.474;2023-05-12T06:00:43;101770.52;;;9.90;92.05
55755;BME280;41674;52.290;-1.474;2023-05-12T06:03:12;101774.29;;;9.66;94.57
55755;BME280;41674;52.290;-1.474;2023-05-12T06:05:42;101776.60;;;9.89;92.66
55755;BME280;41674;52.290;-1.474;2023-05-12T06:08:11;101781.67;;;10.12;90.68
55755;BME280;41674;52.290;-1.474;2023-05-12T06:10:41;101789.92;;;9.79;92.28
55755;BME280;41674;52.290;-1.474;2023-05-12T06:13:10;101790.04;;;11.33;87.17
55755;BME280;41674;52.290;-1.474;2023-05-12T06:15:39;101789.87;;;11.12;87.01
55755;BME280;41674;52.290;-1.474;2023-05-12T06:18:09;101797.87;;;10.90;88.94
55755;BME280;41674;52.290;-1.474;2023-05-12T06:20:39;101800.85;;;11.25;86.80
55755;BME280;41674;52.290;-1.474;2023-05-12T06:23:08;101805.45;;;10.49;88.75
55755;BME280;41674;52.290;-1.474;2023-05-12T06:25:37;101811.61;;;10.55;90.98
55755;BME280;41674;52.290;-1.474;2023-05-12T06:28:07;101810.47;;;10.70;90.44
55755;BME280;41674;52.290;-1.474;2023-05-12T06:30:36;101814.90;;;10.41;91.54
55755;BME280;41674;52.290;-1.474;2023-05-12T06:33:05;101816.44;;;10.64;89.92
55755;BME280;41674;52.290;-1.474;2023-05-12T06:35:35;101820.34;;;9.98;93.66
55755;BME280;41674;52.290;-1.474;2023-05-12T06:38:05;101820.51;;;10.67;91.19
55755;BME280;41674;52.290;-1.474;2023-05-12T06:40:35;101829.60;;;9.98;93.88
55755;BME280;41674;52.290;-1.474;2023-05-12T06:43:04;101829.36;;;10.02;92.90
55755;BME280;41674;52.290;-1.474;2023-05-12T06:45:34;101825.62;;;10.70;90.90
55755;BME280;41674;52.290;-1.474;2023-05-12T06:48:03;101829.29;;;11.02;88.81
55755;BME280;41674;52.290;-1.474;2023-05-12T06:50:32;101832.84;;;10.77;90.26
55755;BME280;41674;52.290;-1.474;2023-05-12T06:53:02;101837.73;;;10.41;91.51
55755;BME280;41674;52.290;-1.474;2023-05-12T06:55:31;101838.23;;;10.45;92.35
55755;BME280;41674;52.290;-1.474;2023-05-12T06:58:01;101836.08;;;10.01;94.49
55755;BME280;41674;52.290;-1.474;2023-05-12T07:00:30;101835.49;;;10.18;93.35
55755;BME280;41674;52.290;-1.474;2023-05-12T07:03:00;101841.39;;;11.24;90.61
55755;BME280;41674;52.290;-1.474;2023-05-12T07:05:29;101840.42;;;11.59;88.08
55755;BME280;41674;52.290;-1.474;2023-05-12T07:07:58;101845.49;;;11.09;89.37
55755;BME280;41674;52.290;-1.474;2023-05-12T07:10:28;101845.06;;;10.88;89.11
55755;BME280;41674;52.290;-1.474;2023-05-12T07:12:57;101847.49;;;11.12;89.36
55755;BME280;41674;52.290;-1.474;2023-05-12T07:15:27;101847.68;;;11.12;90.65
55755;BME280;41674;52.290;-1.474;2023-05-12T07:17:57;101853.10;;;10.47;92.50
55755;BME280;41674;52.290;-1.474;2023-05-12T07:20:27;101854.31;;;10.26;91.52
55755;BME280;41674;52.290;-1.474;2023-05-12T07:22:56;101853.87;;;10.42;92.37
55755;BME280;41674;52.290;-1.474;2023-05-12T07:25:25;101861.85;;;9.47;96.08
55755;BME280;41674;52.290;-1.474;2023-05-12T07:27:54;101862.83;;;10.08;92.77
55755;BME280;41674;52.290;-1.474;2023-05-12T07:30:24;101863.92;;;11.10;90.03
55755;BME280;41674;52.290;-1.474;2023-05-12T07:32:53;101861.68;;;10.58;89.70
55755;BME280;41674;52.290;-1.474;2023-05-12T07:35:23;101860.84;;;11.01;88.85
55755;BME280;41674;52.290;-1.474;2023-05-12T07:37:52;101860.11;;;11.12;89.30
55755;BME280;41674;52.290;-1.474;2023-05-12T07:40:23;101860.40;;;10.77;87.91
55755;BME280;41674;52.290;-1.474;2023-05-12T07:42:52;101856.59;;;11.03;85.51
55755;BME280;41674;52.290;-1.474;2023-05-12T07:45:22;101864.40;;;10.80;87.81
55755;BME280;41674;52.290;-1.474;2023-05-12T07:47:51;101866.83;;;10.03;87.88
55755;BME280;41674;52.290;-1.474;2023-05-12T07:50:20;101870.33;;;9.94;89.09
55755;BME280;41674;52.290;-1.474;2023-05-12T07:52:51;101864.66;;;10.62;87.40
55755;BME280;41674;52.290;-1.474;2023-05-12T07:55:21;101865.68;;;10.00;92.32
55755;BME280;41674;52.290;-1.474;2023-05-12T07:57:50;101869.51;;;10.34;89.11
55755;BME280;41674;52.290;-1.474;2023-05-12T08:00:19;101872.53;;;10.83;86.27
55755;BME280;41674;52.290;-1.474;2023-05-12T08:02:48;101864.64;;;10.60;85.96
55755;BME280;41674;52.290;-1.474;2023-05-12T08:05:18;101872.80;;;9.43;90.80
55755;BME280;41674;52.290;-1.474;2023-05-12T08:07:47;101871.42;;;9.49;90.36
55755;BME280;41674;52.290;-1.474;2023-05-12T08:10:18;101868.21;;;10.66;87.36
55755;BME280;41674;52.290;-1.474;2023-05-12T08:12:46;101866.56;;;10.38;90.87
55755;BME280;41674;52.290;-1.474;2023-05-12T08:15:16;101865.25;;;10.82;89.70
55755;BME280;41674;52.290;-1.474;2023-05-12T08:17:45;101869.71;;;10.43;93.37
55755;BME280;41674;52.290;-1.474;2023-05-12T08:20:15;101869.53;;;10.27;92.32
55755;BME280;41674;52.290;-1.474;2023-05-12T08:22:45;101869.25;;;10.44;93.95
55755;BME280;41674;52.290;-1.474;2023-05-12T08:25:15;101880.12;;;9.91;97.71
55755;BME280;41674;52.290;-1.474;2023-05-12T08:27:44;101877.36;;;10.75;92.31
55755;BME280;41674;52.290;-1.474;2023-05-12T08:30:15;101876.32;;;10.63;90.42
55755;BME280;41674;52.290;-1.474;2023-05-12T08:32:44;101881.95;;;10.52;93.05
55755;BME280;41674;52.290;-1.474;2023-05-12T08:35:13;101884.47;;;11.03;89.27
55755;BME280;41674;52.290;-1.474;2023-05-12T08:37:42;101884.55;;;10.69;91.69
55755;BME280;41674;52.290;-1.474;2023-05-12T08:40:17;101886.22;;;10.66;91.42
55755;BME280;41674;52.290;-1.474;2023-05-12T08:42:42;101891.93;;;10.64;93.60
55755;BME280;41674;52.290;-1.474;2023-05-12T08:45:11;101893.78;;;10.07;93.89
55755;BME280;41674;52.290;-1.474;2023-05-12T08:47:40;101899.59;;;10.38;94.37
55755;BME280;41674;52.290;-1.474;2023-05-12T08:50:12;101899.71;;;11.29;87.75
55755;BME280;41674;52.290;-1.474;2023-05-12T08:52:39;101901.97;;;11.00;89.18
55755;BME280;41674;52.290;-1.474;2023-05-12T08:55:10;101903.79;;;11.38;89.03
55755;BME280;41674;52.290;-1.474;2023-05-12T08:57:39;101906.66;;;10.83;89.38
55755;BME280;41674;52.290;-1.474;2023-05-12T09:00:09;101911.85;;;11.62;88.58
55755;BME280;41674;52.290;-1.474;2023-05-12T09:02:38;101913.66;;;11.65;88.93
55755;BME280;41674;52.290;-1.474;2023-05-12T09:07:41;101918.94;;;10.80;88.23
55755;BME280;41674;52.290;-1.474;2023-05-12T09:10:09;101923.73;;;11.30;88.27
55755;BME280;41674;52.290;-1.474;2023-05-12T09:12:36;101921.69;;;11.12;88.14
55755;BME280;41674;52.290;-1.474;2023-05-12T09:15:07;101916.54;;;11.83;85.45
55755;BME280;41674;52.290;-1.474;2023-05-12T09:17:34;101920.77;;;12.36;84.99
55755;BME280;41674;52.290;-1.474;2023-05-12T09:20:05;101922.69;;;11.26;86.07
55755;BME280;41674;52.290;-1.474;2023-05-12T09:22:33;101922.21;;;12.26;84.86
55755;BME280;41674;52.290;-1.474;2023-05-12T09:25:14;101925.02;;;11.68;86.32
55755;BME280;41674;52.290;-1.474;2023-05-12T09:27:32;101928.56;;;10.98;90.00
55755;BME280;41674;52.290;-1.474;2023-05-12T09:30:02;101927.55;;;11.91;88.13
55755;BME280;41674;52.290;-1.474;2023-05-12T09:32:32;101928.48;;;11.25;86.62
55755;BME280;41674;52.290;-1.474;2023-05-12T09:35:02;101929.60;;;12.44;84.92
55755;BME280;41674;52.290;-1.474;2023-05-12T09:37:31;101925.84;;;10.92;90.50
55755;BME280;41674;52.290;-1.474;2023-05-12T09:40:01;101925.02;;;10.89;89.67
55755;BME280;41674;52.290;-1.474;2023-05-12T09:42:31;101923.79;;;11.42;89.35
55755;BME280;41674;52.290;-1.474;2023-05-12T09:44:59;101927.21;;;11.78;88.64
55755;BME280;41674;52.290;-1.474;2023-05-12T09:47:33;101925.57;;;12.35;85.20
55755;BME280;41674;52.290;-1.474;2023-05-12T09:49:58;101922.16;;;12.59;83.69
55755;BME280;41674;52.290;-1.474;2023-05-12T09:52:29;101930.66;;;12.47;84.02
55755;BME280;41674;52.290;-1.474;2023-05-12T09:55:04;101928.84;;;11.78;85.62
55755;BME280;41674;52.290;-1.474;2023-05-12T09:57:26;101932.65;;;11.36;85.33
55755;BME280;41674;52.290;-1.474;2023-05-12T09:59:56;101929.27;;;10.46;88.25
55755;BME280;41674;52.290;-1.474;2023-05-12T10:02:26;101930.38;;;11.13;86.83
55755;BME280;41674;52.290;-1.474;2023-05-12T10:05:00;101927.91;;;12.52;81.25
55755;BME280;41674;52.290;-1.474;2023-05-12T10:07:25;101927.45;;;11.83;85.34
55755;BME280;41674;52.290;-1.474;2023-05-12T10:09:59;101930.14;;;11.58;85.76
55755;BME280;41674;52.290;-1.474;2023-05-12T10:12:25;101929.07;;;11.37;86.78
55755;BME280;41674;52.290;-1.474;2023-05-12T10:14:54;101931.40;;;12.22;84.46
55755;BME280;41674;52.290;-1.474;2023-05-12T10:17:23;101937.75;;;10.80;90.01
55755;BME280;41674;52.290;-1.474;2023-05-12T10:19:53;101941.74;;;11.43;89.15
55755;BME280;41674;52.290;-1.474;2023-05-12T10:22:26;101942.46;;;10.66;86.80
55755;BME280;41674;52.290;-1.474;2023-05-12T10:24:54;101940.49;;;11.15;88.94
55755;BME280;41674;52.290;-1.474;2023-05-12T10:27:24;101952.56;;;10.92;92.50
55755;BME280;41674;52.290;-1.474;2023-05-12T10:29:53;101939.26;;;10.94;92.70
55755;BME280;41674;52.290;-1.474;2023-05-12T10:32:21;101934.76;;;10.82;92.06
55755;BME280;41674;52.290;-1.474;2023-05-12T10:34:50;101932.32;;;11.46;88.91
55755;BME280;41674;52.290;-1.474;2023-05-12T10:37:22;101928.87;;;12.09;87.67
55755;BME280;41674;52.290;-1.474;2023-05-12T10:39:51;101926.26;;;12.54;86.65
55755;BME280;41674;52.290;-1.474;2023-05-12T10:42:21;101928.00;;;12.81;85.68
55755;BME280;41674;52.290;-1.474;2023-05-12T10:44:50;101929.92;;;12.42;86.45
55755;BME280;41674;52.290;-1.474;2023-05-12T10:47:22;101938.39;;;12.47;85.89
55755;BME280;41674;52.290;-1.474;2023-05-12T10:49:55;101932.42;;;12.12;85.25
55755;BME280;41674;52.290;-1.474;2023-05-12T10:52:19;101929.84;;;12.71;85.32
55755;BME280;41674;52.290;-1.474;2023-05-12T10:54:47;101933.68;;;12.08;86.38
55755;BME280;41674;52.290;-1.474;2023-05-12T10:57:19;101931.12;;;11.34;87.56
55755;BME280;41674;52.290;-1.474;2023-05-12T10:59:48;101937.00;;;12.13;87.94
55755;BME280;41674;52.290;-1.474;2023-05-12T11:02:17;101933.21;;;12.06;87.44
55755;BME280;41674;52.290;-1.474;2023-05-12T11:04:48;101935.01;;;12.08;87.74
55755;BME280;41674;52.290;-1.474;2023-05-12T11:07:18;101933.50;;;11.87;88.79
55755;BME280;41674;52.290;-1.474;2023-05-12T11:09:45;101932.95;;;11.60;88.37
55755;BME280;41674;52.290;-1.474;2023-05-12T11:12:15;101926.59;;;12.14;87.48
55755;BME280;41674;52.290;-1.474;2023-05-12T11:14:45;101929.30;;;11.95;88.40
55755;BME280;41674;52.290;-1.474;2023-05-12T11:17:14;101930.11;;;12.68;87.98
55755;BME280;41674;52.290;-1.474;2023-05-12T11:19:46;101923.33;;;12.15;87.86
55755;BME280;41674;52.290;-1.474;2023-05-12T11:22:14;101924.40;;;12.57;86.74
55755;BME280;41674;52.290;-1.474;2023-05-12T11:24:42;101927.89;;;12.13;86.42
55755;BME280;41674;52.290;-1.474;2023-05-12T11:27:13;101924.46;;;11.84;86.30
55755;BME280;41674;52.290;-1.474;2023-05-12T11:29:42;101926.76;;;12.34;86.52
55755;BME280;41674;52.290;-1.474;2023-05-12T11:32:11;101924.04;;;12.02;84.13
55755;BME280;41674;52.290;-1.474;2023-05-12T11:34:40;101918.54;;;12.35;86.03
55755;BME280;41674;52.290;-1.474;2023-05-12T11:37:15;101925.37;;;11.83;86.26
55755;BME280;41674;52.290;-1.474;2023-05-12T11:39:40;101933.63;;;11.81;88.65
55755;BME280;41674;52.290;-1.474;2023-05-12T11:42:10;101933.12;;;11.63;87.15
55755;BME280;41674;52.290;-1.474;2023-05-12T11:44:47;101935.20;;;11.50;88.74
55755;BME280;41674;52.290;-1.474;2023-05-12T11:47:12;101934.96;;;12.41;86.27
55755;BME280;41674;52.290;-1.474;2023-05-12T11:49:46;101939.16;;;11.33;88.57
55755;BME280;41674;52.290;-1.474;2023-05-12T11:52:07;101937.54;;;12.25;87.79
55755;BME280;41674;52.290;-1.474;2023-05-12T11:54:36;101937.68;;;11.54;88.72
55755;BME280;41674;52.290;-1.474;2023-05-12T11:57:06;101940.19;;;12.34;86.13
55755;BME280;41674;52.290;-1.474;2023-05-12T11:59:35;101938.31;;;12.74;84.85
55755;BME280;41674;52.290;-1.474;2023-05-12T12:02:06;101932.48;;;12.82;85.46
55755;BME280;41674;52.290;-1.474;2023-05-12T12:04:35;101927.28;;;13.00;83.80
55755;BME280;41674;52.290;-1.474;2023-05-12T12:07:04;101930.78;;;12.59;84.24
55755;BME280;41674;52.290;-1.474;2023-05-12T12:09:35;101928.27;;;13.50;84.76
55755;BME280;41674;52.290;-1.474;2023-05-12T12:12:05;101927.40;;;13.22;85.89
55755;BME280;41674;52.290;-1.474;2023-05-12T12:14:34;101926.06;;;12.33;87.03
55755;BME280;41674;52.290;-1.474;2023-05-12T12:17:03;101926.67;;;13.23;84.05
55755;BME280;41674;52.290;-1.474;2023-05-12T12:19:31;101930.85;;;13.64;83.03
55755;BME280;41674;52.290;-1.474;2023-05-12T12:22:00;101930.74;;;12.45;85.14
55755;BME280;41674;52.290;-1.474;2023-05-12T12:24:30;101935.20;;;13.12;81.37
55755;BME280;41674;52.290;-1.474;2023-05-12T12:26:59;101938.60;;;12.80;80.90
55755;BME280;41674;52.290;-1.474;2023-05-12T12:29:29;101941.13;;;12.87;82.65
55755;BME280;41674;52.290;-1.474;2023-05-12T12:31:58;101936.09;;;13.25;81.23
55755;BME280;41674;52.290;-1.474;2023-05-12T12:34:28;101934.26;;;13.02;82.67
55755;BME280;41674;52.290;-1.474;2023-05-12T12:36:57;101940.18;;;12.90;82.37
55755;BME280;41674;52.290;-1.474;2023-05-12T12:39:28;101930.77;;;12.46;82.26
55755;BME280;41674;52.290;-1.474;2023-05-12T12:41:57;101932.98;;;12.54;81.88
55755;BME280;41674;52.290;-1.474;2023-05-12T12:44:43;101933.00;;;12.19;83.56
55755;BME280;41674;52.290;-1.474;2023-05-12T12:46:56;101934.46;;;11.99;84.71
55755;BME280;41674;52.290;-1.474;2023-05-12T12:49:25;101933.05;;;12.19;84.75
55755;BME280;41674;52.290;-1.474;2023-05-12T12:51:57;101932.36;;;12.63;82.68
55755;BME280;41674;52.290;-1.474;2023-05-12T12:54:33;101938.97;;;12.41;84.60